Andersonville, Tennessee
Current Conditions -  °F | °C
As of 7:53 PM on Wednesday 22 Oct 2014 (Local Time) from KOQT Reporting Station
Clear Clear  
Wind Chill: 50°   Ceiling: Unl
Heat Index: 50°   Visibility: 10mi
Dew Point: 40°   Wind: 3mph
Humidity: 68%   Direction: NA
Pressure: 30.23"   Gusts: NA
Location:  36.2°N, 84.04°W
Report Text: KOQT 222353Z AUTO VRB03KT 10SM CLR 10/04 A3023 RMK AO2 SLP244 T01000044 10172 20100 53015
Loading
Personal Weather Stations






























Interactive Weather Map
Tropical Storm Tracking
New forecast layout! Learn more

10-Day Weather Forecast

Advertisements
Track Severe Weather on mobile